Time;durP1;ratioP1;P1;durP2;ratioP2;P2;SDS_P1;SDS_P2;PMS_P1;PMS_P2;Temp;Humidity;BMP_temperature;BMP_pressure;BME280_temperature;BME280_humidity;BME280_pressure;Samples;Min_cycle;Max_cycle;Signal;HPM_P1;HPM_P2
2023/03/06 00:02:59;;;;;;;10.40;9.40;;;22.60;66.70;;;;;;6012956;29;89354;-72
2023/03/06 00:06:01;;;;;;;9.98;9.07;;;22.60;66.70;;;;;;6012252;29;89393;-72
2023/03/06 00:09:03;;;;;;;9.90;8.90;;;22.60;66.80;;;;;;6002717;29;88469;-72
2023/03/06 00:12:08;;;;;;;9.82;8.93;;;22.60;66.70;;;;;;6013172;29;88009;-72
2023/03/06 00:15:11;;;;;;;9.75;8.85;;;22.60;66.70;;;;;;6012816;29;88146;-72
2023/03/06 00:18:13;;;;;;;9.90;8.90;;;22.60;66.70;;;;;;6012449;29;90494;-72
2023/03/06 00:21:15;;;;;;;9.90;8.90;;;22.60;66.70;;;;;;6002935;29;89152;-72
2023/03/06 00:24:17;;;;;;;10.82;9.73;;;22.50;66.60;;;;;;6014307;29;89403;-72
2023/03/06 00:27:23;;;;;;;9.90;8.90;;;22.50;66.60;;;;;;5993306;29;89075;-71
2023/03/06 00:30:25;;;;;;;9.73;8.73;;;22.60;66.60;;;;;;6000320;29;89126;-71
2023/03/06 00:33:27;;;;;;;10.35;9.35;;;22.60;66.60;;;;;;6012094;29;89440;-72
2023/03/06 00:36:29;;;;;;;10.00;9.10;;;22.50;66.50;;;;;;6001796;29;89042;-71
2023/03/06 00:39:31;;;;;;;9.43;8.52;;;22.50;66.50;;;;;;6001456;29;88357;-72
2023/03/06 00:42:35;;;;;;;9.25;8.35;;;22.50;66.40;;;;;;6011323;29;89109;-72
2023/03/06 00:45:37;;;;;;;9.65;8.75;;;22.50;66.50;;;;;;6006717;29;89200;-72
2023/03/06 00:48:39;;;;;;;10.20;9.10;;;22.50;66.40;;;;;;6011060;29;90068;-72
2023/03/06 00:51:41;;;;;;;9.70;8.65;;;22.50;66.50;;;;;;6009454;29;89148;-71
2023/03/06 00:54:43;;;;;;;9.15;8.25;;;22.50;66.50;;;;;;6001895;29;89166;-72
2023/03/06 00:57:47;;;;;;;9.25;8.35;;;22.50;66.40;;;;;;6000812;29;89032;-71
2023/03/06 01:00:49;;;;;;;9.30;8.40;;;22.50;66.40;;;;;;6013352;29;89180;-72
2023/03/06 01:03:51;;;;;;;9.20;8.30;;;22.50;66.40;;;;;;6010061;29;89478;-72
2023/03/06 01:06:53;;;;;;;9.75;8.75;;;22.50;66.40;;;;;;5992360;29;89321;-72
2023/03/06 01:09:55;;;;;;;9.27;8.18;;;22.50;66.30;;;;;;6013665;29;88528;-72
2023/03/06 01:12:59;;;;;;;8.80;8.00;;;22.50;66.30;;;;;;6014113;29;89362;-72
2023/03/06 01:16:08;;;;;;;8.70;7.80;;;22.50;66.30;;;;;;6012597;29;89088;-71
2023/03/06 01:19:10;;;;;;;9.02;8.13;;;22.40;66.20;;;;;;6007663;29;90476;-72
2023/03/06 01:22:12;;;;;;;8.93;7.97;;;22.40;66.30;;;;;;6010724;29;89148;-72
2023/03/06 01:25:14;;;;;;;9.77;7.05;;;22.40;66.20;;;;;;6012342;29;89062;-72
2023/03/06 01:28:18;;;;;;;8.25;7.43;;;22.40;64.50;;;;;;6009306;29;89385;-71
2023/03/06 01:31:20;;;;;;;8.02;7.22;;;22.40;64.70;;;;;;6003697;29;89309;-72
2023/03/06 01:34:22;;;;;;;8.77;7.55;;;22.40;65.00;;;;;;6010975;29;89189;-72
2023/03/06 01:37:24;;;;;;;8.27;7.38;;;22.40;65.40;;;;;;6010948;29;89108;-72
2023/03/06 01:40:26;;;;;;;7.88;7.07;;;22.30;65.40;;;;;;6008031;29;88386;-72
2023/03/06 01:43:32;;;;;;;8.13;7.32;;;22.40;65.50;;;;;;6009949;29;89120;-70
2023/03/06 01:46:40;;;;;;;7.93;7.13;;;22.40;66.50;;;;;;6004682;29;89443;-71
2023/03/06 01:49:42;;;;;;;7.78;7.07;;;22.30;65.60;;;;;;6001362;29;90881;-72
2023/03/06 01:52:50;;;;;;;7.82;7.10;;;22.30;65.70;;;;;;6013535;29;89220;-72
2023/03/06 01:55:52;;;;;;;7.43;6.72;;;22.40;65.80;;;;;;6006287;29;89070;-71
2023/03/06 01:58:57;;;;;;;8.13;7.32;;;22.30;65.80;;;;;;6009270;29;88808;-72
2023/03/06 02:02:01;;;;;;;7.43;6.70;;;22.30;65.80;;;;;;6000404;29;89165;-71
2023/03/06 02:05:05;;;;;;;7.63;6.93;;;22.30;65.90;;;;;;6008509;29;89089;-72
2023/03/06 02:08:09;;;;;;;7.70;6.88;;;22.30;65.80;;;;;;6000517;29;88044;-72
2023/03/06 02:11:13;;;;;;;7.13;6.45;;;22.30;65.80;;;;;;6009259;29;88608;-72
2023/03/06 02:14:17;;;;;;;7.50;6.80;;;22.30;65.80;;;;;;6015168;29;88625;-71
2023/03/06 02:17:22;;;;;;;8.20;7.28;;;22.30;65.70;;;;;;6010816;29;88001;-71
2023/03/06 02:20:31;;;;;;;7.55;6.80;;;22.30;65.70;;;;;;6005551;29;90138;-71
2023/03/06 02:23:45;;;;;;;7.95;7.15;;;22.30;65.70;;;;;;6014339;28;89055;-71
2023/03/06 02:26:49;;;;;;;7.07;6.35;;;22.30;65.70;;;;;;6001420;29;89131;-71
2023/03/06 02:29:51;;;;;;;7.10;6.50;;;22.20;65.70;;;;;;6002301;29;89104;-71
2023/03/06 02:32:54;;;;;;;6.97;6.35;;;22.20;65.70;;;;;;6011557;29;89207;-72
2023/03/06 02:35:58;;;;;;;7.40;6.65;;;22.20;65.70;;;;;;6008232;29;90720;-72
2023/03/06 02:39:02;;;;;;;7.40;6.70;;;22.30;65.80;;;;;;6011332;29;89221;-71
2023/03/06 02:42:05;;;;;;;7.20;6.50;;;22.20;65.70;;;;;;6013200;29;88748;-72
2023/03/06 02:45:12;;;;;;;7.60;6.90;;;22.20;65.70;;;;;;6015998;29;88878;-72
2023/03/06 02:48:15;;;;;;;8.43;6.95;;;22.20;65.70;;;;;;6011514;29;89667;-72
2023/03/06 02:51:17;;;;;;;7.40;6.70;;;22.20;65.70;;;;;;6008063;29;90435;-72
2023/03/06 02:54:19;;;;;;;7.50;6.80;;;22.20;65.60;;;;;;6009763;29;88843;-72
2023/03/06 02:57:23;;;;;;;8.40;7.18;;;22.20;65.60;;;;;;6005485;29;89062;-72
2023/03/06 03:00:26;;;;;;;7.50;6.80;;;22.20;65.50;;;;;;6016662;29;87757;-72
2023/03/06 03:03:28;;;;;;;8.23;7.43;;;22.10;65.50;;;;;;6005482;29;90383;-72
2023/03/06 03:06:30;;;;;;;8.23;7.43;;;22.10;65.50;;;;;;6014389;29;89572;-72
2023/03/06 03:09:35;;;;;;;8.50;7.70;;;22.10;65.50;;;;;;6008337;29;89127;-72
2023/03/06 03:12:39;;;;;;;8.88;7.97;;;22.10;65.50;;;;;;6006420;29;88418;-72
2023/03/06 03:15:41;;;;;;;8.35;7.53;;;22.10;65.60;;;;;;6010475;29;89379;-72
2023/03/06 03:18:46;;;;;;;9.10;8.18;;;22.10;65.60;;;;;;6005501;29;87913;-72
2023/03/06 03:21:48;;;;;;;8.43;7.63;;;22.10;65.50;;;;;;6002135;29;90418;-72
2023/03/06 03:24:50;;;;;;;8.75;7.85;;;22.10;65.50;;;;;;6005693;29;88023;-71
2023/03/06 03:27:54;;;;;;;8.88;7.97;;;22.20;65.50;;;;;;6013747;29;89092;-72
2023/03/06 03:30:56;;;;;;;8.70;7.90;;;22.10;65.50;;;;;;6002881;29;89082;-72
2023/03/06 03:33:58;;;;;;;9.55;8.55;;;22.10;65.50;;;;;;6013533;29;87992;-73
2023/03/06 03:37:00;;;;;;;9.15;8.13;;;22.10;65.50;;;;;;6004124;29;89208;-72
2023/03/06 03:40:03;;;;;;;8.70;7.80;;;22.10;65.20;;;;;;6014409;29;88796;-72
2023/03/06 03:43:07;;;;;;;9.45;8.23;;;22.10;64.40;;;;;;6012733;29;88291;-72
2023/03/06 03:46:09;;;;;;;9.48;8.52;;;22.10;64.70;;;;;;6014321;29;89440;-72
2023/03/06 03:49:11;;;;;;;8.85;7.95;;;22.00;64.90;;;;;;5996199;29;89143;-73
2023/03/06 03:52:13;;;;;;;8.48;7.68;;;22.10;65.10;;;;;;6013157;29;90181;-72
2023/03/06 03:55:15;;;;;;;8.82;8.02;;;22.10;65.10;;;;;;6009628;29;89123;-72
2023/03/06 03:58:19;;;;;;;9.25;8.25;;;22.10;65.20;;;;;;6012468;29;88011;-72
2023/03/06 04:01:21;;;;;;;8.65;7.75;;;22.00;65.20;;;;;;6015541;29;88880;-72
2023/03/06 04:04:23;;;;;;;9.18;8.27;;;22.10;65.20;;;;;;6011303;29;89178;-72
2023/03/06 04:07:25;;;;;;;8.82;7.97;;;22.10;65.20;;;;;;6008452;29;88509;-72
2023/03/06 04:10:27;;;;;;;9.50;8.27;;;22.00;65.20;;;;;;6010661;29;89089;-72
2023/03/06 04:13:31;;;;;;;8.43;7.63;;;22.00;65.20;;;;;;6014009;29;88435;-72
2023/03/06 04:16:33;;;;;;;8.98;8.05;;;22.00;65.20;;;;;;6000688;29;89094;-71
2023/03/06 04:19:36;;;;;;;8.45;7.65;;;22.00;65.20;;;;;;6002610;29;89538;-72
2023/03/06 04:22:38;;;;;;;8.52;7.72;;;22.00;65.20;;;;;;6014395;29;90875;-71
2023/03/06 04:25:40;;;;;;;9.43;8.52;;;22.00;65.20;;;;;;6001051;29;89117;-72
2023/03/06 04:28:43;;;;;;;9.00;8.10;;;22.00;65.20;;;;;;6013033;29;89311;-72
2023/03/06 04:31:45;;;;;;;9.50;8.55;;;22.00;65.20;;;;;;6012916;29;89060;-72
2023/03/06 04:34:47;;;;;;;9.68;8.68;;;22.00;65.30;;;;;;6011276;29;89185;-72
2023/03/06 04:37:49;;;;;;;8.75;7.85;;;22.00;65.20;;;;;;6003153;29;87944;-71
2023/03/06 04:40:51;;;;;;;9.13;8.23;;;22.00;65.20;;;;;;6013701;29;89100;-72
2023/03/06 04:43:55;;;;;;;8.80;7.97;;;22.00;65.10;;;;;;6010961;29;88463;-71
2023/03/06 04:46:57;;;;;;;8.40;7.60;;;22.00;65.00;;;;;;6004203;29;88830;-71
2023/03/06 04:49:59;;;;;;;10.05;8.70;;;22.00;65.00;;;;;;6002458;29;89152;-72
2023/03/06 04:53:03;;;;;;;8.77;7.97;;;22.00;65.00;;;;;;6003666;29;90025;-72
2023/03/06 04:56:06;;;;;;;8.55;7.68;;;22.00;65.00;;;;;;5998123;29;89414;-72
2023/03/06 04:59:10;;;;;;;8.43;7.63;;;22.00;65.00;;;;;;6010618;29;89140;-72
2023/03/06 05:02:12;;;;;;;9.13;8.23;;;22.00;64.90;;;;;;6013969;29;89517;-72
2023/03/06 05:05:15;;;;;;;8.60;7.75;;;22.00;64.90;;;;;;6003518;29;89483;-72
2023/03/06 05:08:18;;;;;;;8.68;7.88;;;22.10;64.90;;;;;;6008413;29;89484;-71
2023/03/06 05:11:20;;;;;;;8.50;7.70;;;22.00;64.90;;;;;;5999262;29;89167;-73
2023/03/06 05:14:23;;;;;;;9.57;8.27;;;22.10;64.90;;;;;;5996819;29;88430;-72
2023/03/06 05:17:25;;;;;;;7.82;7.13;;;22.10;64.90;;;;;;6002836;29;89101;-72
2023/03/06 05:20:28;;;;;;;8.02;7.22;;;22.10;64.90;;;;;;6013472;29;89457;-72
2023/03/06 05:23:31;;;;;;;7.97;7.18;;;22.10;64.90;;;;;;6011061;29;90085;-72
2023/03/06 05:26:34;;;;;;;7.72;6.93;;;22.10;64.80;;;;;;6011382;29;88693;-73
2023/03/06 05:29:37;;;;;;;7.78;7.07;;;22.10;64.80;;;;;;6007323;29;89334;-70
2023/03/06 05:32:40;;;;;;;7.95;7.25;;;22.10;64.80;;;;;;6008397;29;89156;-72
2023/03/06 05:35:46;;;;;;;8.20;6.97;;;22.10;64.80;;;;;;5999094;29;89110;-72
2023/03/06 05:38:48;;;;;;;8.65;7.57;;;22.10;64.90;;;;;;6003390;29;89941;-72
2023/03/06 05:41:50;;;;;;;7.85;7.05;;;22.10;64.80;;;;;;6014005;29;88195;-72
2023/03/06 05:44:53;;;;;;;7.57;6.88;;;22.10;64.90;;;;;;6006698;29;88608;-72
2023/03/06 05:47:55;;;;;;;8.02;7.22;;;22.20;64.80;;;;;;6009887;29;89561;-72
2023/03/06 05:50:58;;;;;;;8.45;6.70;;;22.20;64.70;;;;;;6015830;29;89154;-72
2023/03/06 05:54:00;;;;;;;7.70;7.00;;;22.20;64.80;;;;;;6016286;29;90010;-72
2023/03/06 05:57:03;;;;;;;7.70;6.90;;;22.20;64.70;;;;;;6015185;29;89204;-72
2023/03/06 06:00:08;;;;;;;7.47;6.78;;;22.20;64.70;;;;;;6006344;29;88991;-72
2023/03/06 06:03:10;;;;;;;7.15;6.45;;;22.20;64.70;;;;;;6006958;29;89090;-72
2023/03/06 06:06:15;;;;;;;7.18;6.47;;;22.20;64.80;;;;;;6010702;29;89430;-71
2023/03/06 06:09:17;;;;;;;10.07;6.72;;;22.20;64.70;;;;;;6012926;29;89022;-71
2023/03/06 06:12:19;;;;;;;8.40;6.82;;;22.20;66.20;;;;;;6010492;29;89111;-71
2023/03/06 06:15:22;;;;;;;7.28;6.57;;;22.20;66.50;;;;;;6012003;29;88579;-71
2023/03/06 06:18:25;;;;;;;7.22;6.53;;;22.30;65.90;;;;;;6010022;29;89029;-72
2023/03/06 06:21:27;;;;;;;7.35;6.40;;;22.30;65.40;;;;;;6008737;29;89408;-72
2023/03/06 06:24:29;;;;;;;8.80;7.13;;;22.40;65.30;;;;;;5998984;29;90057;-71
2023/03/06 06:27:31;;;;;;;7.18;6.47;;;22.40;65.20;;;;;;6000932;29;89252;-72
2023/03/06 06:30:35;;;;;;;7.10;6.40;;;22.40;65.10;;;;;;6009168;29;89153;-72
2023/03/06 06:33:37;;;;;;;7.05;6.35;;;22.50;65.20;;;;;;6001856;29;89118;-72
2023/03/06 06:36:40;;;;;;;7.90;7.10;;;22.50;65.20;;;;;;6014643;29;89208;-71
2023/03/06 06:39:42;;;;;;;6.93;6.22;;;22.40;65.00;;;;;;6005705;29;89167;-71
2023/03/06 06:42:46;;;;;;;8.18;6.13;;;22.40;64.90;;;;;;6000205;29;88853;-71
2023/03/06 06:45:49;;;;;;;6.88;6.18;;;22.50;64.90;;;;;;6004774;29;88060;-72
2023/03/06 06:48:53;;;;;;;6.93;6.25;;;22.40;64.90;;;;;;6009524;29;89169;-72
2023/03/06 06:51:55;;;;;;;7.10;6.10;;;22.40;65.00;;;;;;6008383;29;89117;-71
2023/03/06 06:54:57;;;;;;;7.57;5.95;;;22.40;64.90;;;;;;6015880;29;90340;-71
2023/03/06 06:57:59;;;;;;;6.72;6.05;;;22.50;64.90;;;;;;6001322;29;89095;-71
2023/03/06 07:01:07;;;;;;;6.70;6.10;;;22.50;64.90;;;;;;6006665;29;89073;-71
2023/03/06 07:04:11;;;;;;;6.07;5.47;;;22.50;64.90;;;;;;6011197;29;89094;-71
2023/03/06 07:07:13;;;;;;;7.22;5.90;;;22.50;64.90;;;;;;6011316;29;89053;-71
2023/03/06 07:10:15;;;;;;;6.70;6.10;;;22.50;64.90;;;;;;6012209;29;89408;-71
2023/03/06 07:13:18;;;;;;;6.30;5.70;;;22.50;64.90;;;;;;6009357;29;89146;-71
2023/03/06 07:16:21;;;;;;;6.60;5.90;;;22.50;64.90;;;;;;6009241;29;88710;-71
2023/03/06 07:19:23;;;;;;;6.50;5.82;;;22.50;64.90;;;;;;6002342;29;89102;-71
2023/03/06 07:22:25;;;;;;;6.03;5.43;;;22.50;64.80;;;;;;6007173;29;89118;-71
2023/03/06 07:25:27;;;;;;;5.90;5.30;;;22.50;64.90;;;;;;5992145;29;90151;-71
2023/03/06 07:28:30;;;;;;;6.57;5.45;;;22.50;64.90;;;;;;6010218;29;89191;-71
2023/03/06 07:31:33;;;;;;;6.15;5.55;;;22.50;64.90;;;;;;6003331;29;88997;-72
2023/03/06 07:34:35;;;;;;;6.13;5.47;;;22.50;64.80;;;;;;6000778;29;89497;-71
2023/03/06 07:37:37;;;;;;;6.28;5.68;;;22.50;64.80;;;;;;6008234;29;89045;-71
2023/03/06 07:40:39;;;;;;;5.80;5.28;;;22.50;64.80;;;;;;6005339;29;88992;-72
2023/03/06 07:43:42;;;;;;;6.25;5.65;;;22.60;64.90;;;;;;6013229;29;87956;-71
2023/03/06 07:46:45;;;;;;;5.90;5.30;;;22.50;64.80;;;;;;6003966;29;88677;-71
2023/03/06 07:49:47;;;;;;;6.10;5.47;;;22.50;64.80;;;;;;6007071;29;89534;-71
2023/03/06 07:52:50;;;;;;;5.60;5.10;;;22.60;64.90;;;;;;6013329;29;89065;-71
2023/03/06 07:55:53;;;;;;;5.65;5.10;;;22.50;64.90;;;;;;6009287;29;90041;-71
2023/03/06 07:58:55;;;;;;;5.38;4.88;;;22.50;64.90;;;;;;6009726;29;89116;-71
2023/03/06 08:01:58;;;;;;;5.85;5.25;;;22.50;64.90;;;;;;6009021;29;89769;-71
2023/03/06 08:05:00;;;;;;;5.72;5.22;;;22.50;64.90;;;;;;6007335;29;88558;-71
2023/03/06 08:08:02;;;;;;;5.90;5.40;;;22.50;64.90;;;;;;6006888;29;89138;-71
2023/03/06 08:11:05;;;;;;;5.78;5.15;;;22.60;65.00;;;;;;6010027;29;89181;-71
2023/03/06 08:14:07;;;;;;;5.50;5.00;;;22.60;64.90;;;;;;6013417;29;89118;-70
2023/03/06 08:17:10;;;;;;;5.60;5.10;;;22.60;64.90;;;;;;6005028;29;88727;-71
2023/03/06 08:20:14;;;;;;;6.20;5.60;;;22.60;64.90;;;;;;6004700;29;89423;-71
2023/03/06 08:23:16;;;;;;;4.97;4.53;;;22.60;65.00;;;;;;6010841;29;88226;-71
2023/03/06 08:26:20;;;;;;;5.80;5.20;;;22.60;65.00;;;;;;6011740;29;90316;-72
2023/03/06 08:29:22;;;;;;;5.47;4.95;;;22.60;65.00;;;;;;6014031;29;89037;-70
2023/03/06 08:32:25;;;;;;;5.30;4.80;;;22.60;65.00;;;;;;6015510;29;89330;-71
2023/03/06 08:35:28;;;;;;;5.00;4.60;;;22.60;65.00;;;;;;5990818;29;89039;-71
2023/03/06 08:38:30;;;;;;;4.60;4.20;;;22.60;65.00;;;;;;6009788;29;89165;-71
2023/03/06 08:41:32;;;;;;;5.45;4.95;;;22.60;65.00;;;;;;6013366;29;89257;-72
2023/03/06 08:44:34;;;;;;;5.10;4.60;;;22.60;65.10;;;;;;6008067;29;89131;-72
2023/03/06 08:47:37;;;;;;;4.97;4.50;;;22.60;65.00;;;;;;6008582;29;88696;-71
2023/03/06 08:50:41;;;;;;;5.50;5.00;;;22.60;65.00;;;;;;6007323;29;88930;-71
2023/03/06 08:53:44;;;;;;;4.75;4.35;;;22.60;65.00;;;;;;6003220;29;88007;-71
2023/03/06 08:56:46;;;;;;;5.15;4.57;;;22.60;65.00;;;;;;5993286;29;90062;-71
2023/03/06 08:59:48;;;;;;;5.40;4.70;;;22.60;65.00;;;;;;6009445;29;89105;-71
2023/03/06 09:02:51;;;;;;;4.47;4.07;;;22.70;65.10;;;;;;6014593;29;89127;-71
2023/03/06 09:05:53;;;;;;;4.63;4.22;;;22.60;65.10;;;;;;6003522;29;89145;-72
2023/03/06 09:08:55;;;;;;;5.18;4.68;;;22.60;65.10;;;;;;6008693;29;89172;-71
2023/03/06 09:11:57;;;;;;;5.13;4.63;;;22.60;65.10;;;;;;5995758;29;88023;-71
2023/03/06 09:15:03;;;;;;;4.95;4.50;;;22.70;65.20;;;;;;6006430;29;88350;-71
2023/03/06 09:18:06;;;;;;;4.70;4.30;;;22.70;65.20;;;;;;6008793;29;88610;-72
2023/03/06 09:21:09;;;;;;;4.80;4.30;;;22.60;65.20;;;;;;6014806;29;89285;-72
2023/03/06 09:24:12;;;;;;;4.70;4.30;;;22.70;65.20;;;;;;5998424;29;89189;-71
2023/03/06 09:27:14;;;;;;;4.47;4.07;;;22.60;65.20;;;;;;6010041;29;90084;-71
2023/03/06 09:30:17;;;;;;;4.40;4.00;;;22.70;65.20;;;;;;6004023;29;89466;-71
2023/03/06 09:33:21;;;;;;;4.88;4.35;;;22.70;66.10;;;;;;6014082;29;89050;-72
2023/03/06 09:36:24;;;;;;;4.95;4.45;;;22.70;65.20;;;;;;6007042;29;89084;-71
2023/03/06 09:39:26;;;;;;;4.40;4.00;;;22.70;65.20;;;;;;6016885;29;90465;-71
2023/03/06 09:42:29;;;;;;;4.35;3.95;;;22.70;65.20;;;;;;6013713;29;89091;-71
2023/03/06 09:45:36;;;;;;;4.28;3.88;;;22.70;65.20;;;;;;6006415;29;89079;-71
2023/03/06 09:48:49;;;;;;;4.40;4.00;;;22.70;65.30;;;;;;6011557;29;88526;-72
2023/03/06 09:52:01;;;;;;;4.43;4.03;;;22.70;65.30;;;;;;6010859;29;89109;-71
2023/03/06 09:55:11;;;;;;;4.43;4.00;;;22.70;65.40;;;;;;6005081;29;89257;-71
2023/03/06 09:58:17;;;;;;;4.68;4.10;;;22.70;65.40;;;;;;6003646;29;90130;-71
2023/03/06 10:01:22;;;;;;;4.30;3.90;;;22.70;65.30;;;;;;6016652;29;88410;-71
2023/03/06 10:04:40;;;;;;;4.32;3.92;;;22.70;65.40;;;;;;6001644;29;89128;-72
2023/03/06 10:07:46;;;;;;;4.82;4.30;;;22.70;65.40;;;;;;6010454;29;87914;-72
2023/03/06 10:10:54;;;;;;;4.20;3.80;;;22.70;65.40;;;;;;6017097;29;89512;-72
2023/03/06 10:14:12;;;;;;;4.10;3.70;;;22.70;65.40;;;;;;6008262;29;89037;-71
2023/03/06 10:17:17;;;;;;;4.03;3.72;;;22.80;65.50;;;;;;6005102;29;89120;-71
2023/03/06 10:20:24;;;;;;;4.53;4.00;;;22.70;65.40;;;;;;6015225;29;88348;-72
2023/03/06 10:23:41;;;;;;;3.80;3.50;;;22.70;65.40;;;;;;6015652;29;89259;-72
2023/03/06 10:26:49;;;;;;;4.22;3.83;;;22.70;65.40;;;;;;5994503;29;89307;-72
2023/03/06 10:29:56;;;;;;;3.85;3.47;;;22.70;65.40;;;;;;6014672;29;90060;-71
2023/03/06 10:32:59;;;;;;;4.47;3.50;;;22.80;65.50;;;;;;6016900;29;89137;-70
2023/03/06 10:36:03;;;;;;;3.97;3.67;;;22.70;65.50;;;;;;6005715;29;89380;-69
2023/03/06 10:39:14;;;;;;;4.18;3.78;;;22.80;65.50;;;;;;6012021;29;89092;-69
2023/03/06 10:42:16;;;;;;;3.85;3.50;;;22.80;65.50;;;;;;6008106;29;88745;-70
2023/03/06 10:45:18;;;;;;;4.13;3.70;;;22.80;65.60;;;;;;6016136;29;89097;-69
2023/03/06 10:48:23;;;;;;;4.10;3.70;;;22.80;65.60;;;;;;6005173;29;89365;-72
2023/03/06 10:51:28;;;;;;;4.18;3.80;;;22.80;65.50;;;;;;6008554;29;89870;-71
2023/03/06 10:54:32;;;;;;;3.60;3.30;;;22.80;65.60;;;;;;6013051;29;89166;-72
2023/03/06 10:57:34;;;;;;;4.13;3.75;;;22.80;66.10;;;;;;6012238;29;89220;-70
2023/03/06 11:00:38;;;;;;;3.78;3.47;;;22.80;66.30;;;;;;5999221;29;88885;-69
2023/03/06 11:03:40;;;;;;;4.32;3.70;;;22.80;66.30;;;;;;6005013;29;88942;-70
2023/03/06 11:06:44;;;;;;;3.70;3.40;;;22.80;66.60;;;;;;6015915;29;89139;-69
2023/03/06 11:10:01;;;;;;;3.60;3.30;;;22.80;66.70;;;;;;5999518;29;89036;-69
2023/03/06 11:13:06;;;;;;;4.93;3.50;;;22.80;66.80;;;;;;6002199;29;88185;-70
2023/03/06 11:16:18;;;;;;;12.63;11.43;;;22.80;68.10;;;;;;6014473;29;89079;-69
2023/03/06 11:19:26;;;;;;;4.32;3.92;;;22.80;67.90;;;;;;6003148;29;90554;-72
2023/03/06 11:22:29;;;;;;;4.88;3.90;;;22.80;72.50;;;;;;6015788;29;88289;-70
2023/03/06 11:25:37;;;;;;;4.15;3.75;;;22.90;70.20;;;;;;6004880;29;89046;-70
2023/03/06 11:28:45;;;;;;;4.18;3.65;;;22.80;69.70;;;;;;6002852;29;89458;-71
2023/03/06 11:31:52;;;;;;;4.25;3.80;;;22.90;69.60;;;;;;6009737;29;90209;-70
2023/03/06 11:34:59;;;;;;;4.90;4.00;;;22.90;69.40;;;;;;6012718;29;89576;-68
2023/03/06 11:38:07;;;;;;;4.22;3.83;;;22.90;69.40;;;;;;6010957;29;89058;-69
2023/03/06 11:41:18;;;;;;;5.05;3.88;;;22.80;69.30;;;;;;6003932;29;88998;-71
2023/03/06 11:44:25;;;;;;;4.47;3.67;;;22.80;69.30;;;;;;6001422;29;89102;-72
2023/03/06 11:47:33;;;;;;;4.35;3.63;;;22.80;69.30;;;;;;6013390;29;89107;-71
2023/03/06 11:50:38;;;;;;;4.90;3.70;;;22.80;69.30;;;;;;6008160;29;88948;-71
2023/03/06 11:53:42;;;;;;;4.60;3.50;;;22.80;69.40;;;;;;6013336;29;88392;-71
2023/03/06 11:56:53;;;;;;;5.30;3.70;;;22.80;69.40;;;;;;6014257;29;89447;-71
2023/03/06 12:00:22;;;;;;;6.72;4.15;;;22.80;69.60;;;;;;6013766;29;89023;-71
2023/03/06 12:03:54;;;;;;;3.60;3.30;;;22.80;69.60;;;;;;5999607;29;90658;-71
2023/03/06 12:07:08;;;;;;;5.32;3.97;;;22.80;69.40;;;;;;6000135;29;88010;-71
2023/03/06 12:10:22;;;;;;;4.53;3.60;;;22.80;69.40;;;;;;6010370;29;89164;-72
2023/03/06 12:13:39;;;;;;;4.43;3.53;;;22.80;69.40;;;;;;6014802;29;89048;-72
2023/03/06 12:17:02;;;;;;;3.90;3.50;;;22.90;69.40;;;;;;6012618;29;87895;-71
2023/03/06 12:20:23;;;;;;;6.60;4.10;;;22.90;69.40;;;;;;5999966;29;88902;-73
2023/03/06 12:24:09;;;;;;;3.72;3.25;;;22.80;69.40;;;;;;6004046;29;89178;-72
2023/03/06 12:27:21;;;;;;;4.13;3.28;;;22.80;69.30;;;;;;5918653;29;86944;-72
2023/03/06 12:30:57;;;;;;;3.70;3.40;;;22.80;69.30;;;;;;5922872;29;89134;-71
2023/03/06 12:34:12;;;;;;;3.85;3.42;;;22.80;69.30;;;;;;6011580;29;89005;-72
2023/03/06 12:37:22;;;;;;;4.15;3.33;;;22.80;69.20;;;;;;6007304;29;89972;-72
2023/03/06 12:40:55;;;;;;;3.75;3.40;;;22.80;69.20;;;;;;6009326;29;89062;-72
2023/03/06 12:44:14;;;;;;;4.25;3.35;;;22.80;69.80;;;;;;6003172;29;89602;-71
2023/03/06 12:47:20;;;;;;;4.00;3.45;;;22.80;68.90;;;;;;6002350;29;89136;-72
2023/03/06 12:50:25;;;;;;;3.55;3.15;;;22.90;68.90;;;;;;5995838;29;88036;-72
2023/03/06 12:53:30;;;;;;;3.88;3.47;;;22.80;68.80;;;;;;6012041;29;89118;-72
2023/03/06 12:56:34;;;;;;;3.90;3.50;;;22.90;68.80;;;;;;6009445;29;87993;-72
2023/03/06 12:59:43;;;;;;;3.83;3.47;;;22.90;68.80;;;;;;6007654;29;88323;-71
2023/03/06 13:03:06;;;;;;;3.85;3.47;;;22.80;68.60;;;;;;6008485;29;89295;-72
2023/03/06 13:06:26;;;;;;;4.20;3.50;;;22.90;68.60;;;;;;6007615;29;89060;-72
2023/03/06 13:09:38;;;;;;;3.67;3.38;;;22.90;68.60;;;;;;6013221;29;90099;-72
2023/03/06 13:12:53;;;;;;;3.58;3.28;;;22.80;68.40;;;;;;6003155;29;89320;-72
2023/03/06 13:16:21;;;;;;;4.60;3.65;;;22.80;68.40;;;;;;6012541;29;89189;-71
2023/03/06 13:19:25;;;;;;;3.35;3.00;;;22.90;68.40;;;;;;6013388;29;90357;-72
2023/03/06 13:22:29;;;;;;;3.40;3.10;;;22.90;68.40;;;;;;6012530;29;89278;-71
2023/03/06 13:25:46;;;;;;;3.70;3.40;;;22.90;68.30;;;;;;6008499;29;89206;-72
2023/03/06 13:28:50;;;;;;;3.50;3.20;;;22.90;68.30;;;;;;5991052;29;89025;-72
2023/03/06 13:32:15;;;;;;;5.25;3.55;;;22.90;68.30;;;;;;6004505;29;88585;-72
2023/03/06 13:35:51;;;;;;;3.40;3.10;;;22.90;68.10;;;;;;6012277;29;89199;-72
2023/03/06 13:39:01;;;;;;;3.40;3.10;;;22.90;68.10;;;;;;6001361;29;89115;-72
2023/03/06 13:42:07;;;;;;;4.65;3.10;;;22.90;68.90;;;;;;6011668;29;89073;-71
2023/03/06 13:45:15;;;;;;;4.28;3.38;;;22.90;68.00;;;;;;6008212;29;87874;-72
2023/03/06 13:48:31;;;;;;;3.33;3.03;;;22.90;67.90;;;;;;5996510;29;90084;-72
2023/03/06 13:51:36;;;;;;;4.43;3.58;;;22.90;67.90;;;;;;6006023;29;89419;-72
2023/03/06 13:54:50;;;;;;;3.35;3.05;;;22.90;67.80;;;;;;6012071;29;89162;-71
2023/03/06 13:58:07;;;;;;;3.72;3.20;;;22.90;67.70;;;;;;6013449;29;89090;-72
2023/03/06 14:01:32;;;;;;;3.72;3.20;;;22.90;67.70;;;;;;5999057;29;89083;-71
2023/03/06 14:04:46;;;;;;;3.42;2.95;;;22.90;67.60;;;;;;5995873;29;88717;-72
2023/03/06 14:07:49;;;;;;;4.07;3.45;;;22.90;67.60;;;;;;5994207;29;88942;-72
2023/03/06 14:11:01;;;;;;;3.80;3.30;;;23.00;67.60;;;;;;6000492;29;89191;-71
2023/03/06 14:14:04;;;;;;;3.70;3.10;;;22.90;67.50;;;;;;6005880;29;90172;-71
2023/03/06 14:17:07;;;;;;;3.47;3.17;;;22.90;67.40;;;;;;6017572;29;89320;-72
2023/03/06 14:20:16;;;;;;;3.45;3.10;;;22.90;67.40;;;;;;6015502;29;89082;-73
2023/03/06 14:23:34;;;;;;;3.40;3.10;;;22.90;67.40;;;;;;6015364;29;88068;-72
2023/03/06 14:26:42;;;;;;;3.50;2.97;;;22.90;67.40;;;;;;6017396;29;89306;-72
2023/03/06 14:29:47;;;;;;;3.05;2.75;;;22.90;67.30;;;;;;6002941;29;89217;-71
2023/03/06 14:32:51;;;;;;;3.60;3.28;;;22.90;67.30;;;;;;6016143;29;89138;-72
2023/03/06 14:35:57;;;;;;;3.55;3.25;;;23.00;67.30;;;;;;6013570;29;88350;-72
2023/03/06 14:39:03;;;;;;;3.33;3.03;;;22.90;67.20;;;;;;6003206;29;89156;-72
2023/03/06 14:42:06;;;;;;;3.45;3.15;;;22.90;67.20;;;;;;6009456;29;89188;-72
2023/03/06 14:45:15;;;;;;;3.22;2.92;;;22.90;67.20;;;;;;6008992;29;91746;-72
2023/03/06 14:48:18;;;;;;;3.30;3.00;;;23.00;67.20;;;;;;6013052;29;89464;-71
2023/03/06 14:51:24;;;;;;;3.15;2.95;;;22.90;67.20;;;;;;6012926;29;89156;-72
2023/03/06 14:54:31;;;;;;;3.83;3.35;;;22.90;67.10;;;;;;6005674;29;89571;-72
2023/03/06 14:57:33;;;;;;;3.50;3.20;;;22.90;67.10;;;;;;6015493;29;89314;-72
2023/03/06 15:00:39;;;;;;;3.50;3.20;;;22.90;67.10;;;;;;6015464;29;88262;-72
2023/03/06 15:03:46;;;;;;;3.42;3.13;;;23.00;67.20;;;;;;6007826;29;87981;-72
2023/03/06 15:06:51;;;;;;;3.30;3.00;;;22.90;67.00;;;;;;6012743;29;88469;-71
2023/03/06 15:09:54;;;;;;;3.30;3.00;;;22.90;67.00;;;;;;6000516;29;89385;-72
2023/03/06 15:13:07;;;;;;;3.38;3.08;;;23.00;67.00;;;;;;6013490;29;89182;-72
2023/03/06 15:16:26;;;;;;;3.40;3.10;;;22.90;66.90;;;;;;6002795;29;90486;-72
2023/03/06 15:19:28;;;;;;;3.30;3.00;;;22.90;66.90;;;;;;6002900;29;89304;-72
2023/03/06 15:22:36;;;;;;;3.40;3.10;;;23.00;67.80;;;;;;6011787;29;89082;-71
2023/03/06 15:25:38;;;;;;;3.42;3.13;;;22.90;66.90;;;;;;6012393;29;89113;-73
2023/03/06 15:28:40;;;;;;;3.53;3.22;;;23.00;66.90;;;;;;6007258;29;89139;-72
2023/03/06 15:31:44;;;;;;;3.42;3.13;;;23.00;66.90;;;;;;6011966;29;89118;-73
2023/03/06 15:34:46;;;;;;;3.90;3.55;;;22.90;66.80;;;;;;6011032;29;89070;-73
2023/03/06 15:37:50;;;;;;;3.60;3.30;;;23.00;66.80;;;;;;5998210;29;88483;-72
2023/03/06 15:40:56;;;;;;;3.75;3.35;;;23.00;66.80;;;;;;6003428;29;89138;-73
2023/03/06 15:44:00;;;;;;;3.50;3.20;;;23.00;66.80;;;;;;6004959;29;88990;-72
2023/03/06 15:47:02;;;;;;;3.45;3.15;;;23.00;66.70;;;;;;6009209;29;90073;-72
2023/03/06 15:50:13;;;;;;;4.65;3.58;;;23.00;66.80;;;;;;6004004;29;89149;-72
2023/03/06 15:53:16;;;;;;;4.00;3.40;;;23.00;66.70;;;;;;6011996;29;89315;-72
2023/03/06 15:56:21;;;;;;;3.80;3.47;;;23.00;66.70;;;;;;6015129;29;88315;-72
2023/03/06 15:59:26;;;;;;;3.50;3.20;;;23.00;66.70;;;;;;6001304;29;88257;-72
2023/03/06 16:02:28;;;;;;;3.60;3.30;;;23.00;66.70;;;;;;5999452;29;89095;-72
2023/03/06 16:05:31;;;;;;;3.47;3.17;;;23.00;66.70;;;;;;6006737;29;89089;-72